sensor_id;sensor_type;location;lat;lon;timestamp;temperature;humidity
16114;DHT22;8161;-33.910;151.156;2023-07-20T00:00:53;13.40;99.90
16114;DHT22;8161;-33.910;151.156;2023-07-20T00:03:20;13.60;1.00
16114;DHT22;8161;-33.910;151.156;2023-07-20T00:08:19;13.50;1.00
16114;DHT22;8161;-33.910;151.156;2023-07-20T00:10:46;14.10;99.90
16114;DHT22;8161;-33.910;151.156;2023-07-20T00:15:42;13.70;1.00
16114;DHT22;8161;-33.910;151.156;2023-07-20T00:31:17;14.80;99.90
16114;DHT22;8161;-33.910;151.156;2023-07-20T00:33:44;15.00;94.60
16114;DHT22;8161;-33.910;151.156;2023-07-20T00:41:14;15.30;1.00
16114;DHT22;8161;-33.910;151.156;2023-07-20T00:43:42;15.50;1.00
16114;DHT22;8161;-33.910;151.156;2023-07-20T00:46:10;15.30;1.00
16114;DHT22;8161;-33.910;151.156;2023-07-20T00:48:37;15.80;1.00
16114;DHT22;8161;-33.910;151.156;2023-07-20T00:51:05;15.70;1.00
16114;DHT22;8161;-33.910;151.156;2023-07-20T00:56:00;15.30;1.00
16114;DHT22;8161;-33.910;151.156;2023-07-20T00:58:27;15.40;1.00
16114;DHT22;8161;-33.910;151.156;2023-07-20T01:00:55;15.60;1.00
16114;DHT22;8161;-33.910;151.156;2023-07-20T01:03:22;16.20;1.00
16114;DHT22;8161;-33.910;151.156;2023-07-20T01:14:18;16.40;1.00
16114;DHT22;8161;-33.910;151.156;2023-07-20T01:19:14;16.90;1.00
16114;DHT22;8161;-33.910;151.156;2023-07-20T01:22:21;17.20;99.90
16114;DHT22;8161;-33.910;151.156;2023-07-20T01:33:13;17.70;99.90
16114;DHT22;8161;-33.910;151.156;2023-07-20T01:35:41;17.50;99.90
16114;DHT22;8161;-33.910;151.156;2023-07-20T01:38:11;17.50;99.90
16114;DHT22;8161;-33.910;151.156;2023-07-20T01:40:40;18.00;99.90
16114;DHT22;8161;-33.910;151.156;2023-07-20T01:43:07;18.20;99.90
16114;DHT22;8161;-33.910;151.156;2023-07-20T01:45:35;17.80;99.90
16114;DHT22;8161;-33.910;151.156;2023-07-20T01:48:02;18.10;99.90
16114;DHT22;8161;-33.910;151.156;2023-07-20T01:50:29;18.40;99.90
16114;DHT22;8161;-33.910;151.156;2023-07-20T01:52:57;18.40;99.90
16114;DHT22;8161;-33.910;151.156;2023-07-20T01:57:51;18.20;99.90
16114;DHT22;8161;-33.910;151.156;2023-07-20T02:00:18;18.50;99.90
16114;DHT22;8161;-33.910;151.156;2023-07-20T02:02:47;18.30;99.90
16114;DHT22;8161;-33.910;151.156;2023-07-20T02:05:15;18.10;99.90
16114;DHT22;8161;-33.910;151.156;2023-07-20T02:07:42;18.60;99.90
16114;DHT22;8161;-33.910;151.156;2023-07-20T02:10:13;18.70;99.90
16114;DHT22;8161;-33.910;151.156;2023-07-20T02:12:40;18.60;99.90
16114;DHT22;8161;-33.910;151.156;2023-07-20T02:15:08;18.60;99.90
16114;DHT22;8161;-33.910;151.156;2023-07-20T02:17:35;19.00;99.90
16114;DHT22;8161;-33.910;151.156;2023-07-20T02:20:04;18.90;99.90
16114;DHT22;8161;-33.910;151.156;2023-07-20T02:25:03;19.30;99.90
16114;DHT22;8161;-33.910;151.156;2023-07-20T02:27:30;19.10;99.90
16114;DHT22;8161;-33.910;151.156;2023-07-20T02:29:57;19.30;99.90
16114;DHT22;8161;-33.910;151.156;2023-07-20T02:32:25;19.00;99.90
16114;DHT22;8161;-33.910;151.156;2023-07-20T02:37:20;18.90;99.90
16114;DHT22;8161;-33.910;151.156;2023-07-20T02:39:47;19.40;99.90
16114;DHT22;8161;-33.910;151.156;2023-07-20T02:42:14;19.10;99.90
16114;DHT22;8161;-33.910;151.156;2023-07-20T02:47:08;19.30;99.90
16114;DHT22;8161;-33.910;151.156;2023-07-20T02:52:03;19.40;99.90
16114;DHT22;8161;-33.910;151.156;2023-07-20T02:56:57;19.50;99.90
16114;DHT22;8161;-33.910;151.156;2023-07-20T02:59:24;19.20;99.90
16114;DHT22;8161;-33.910;151.156;2023-07-20T03:01:52;19.60;99.90
16114;DHT22;8161;-33.910;151.156;2023-07-20T03:04:20;19.40;99.90
16114;DHT22;8161;-33.910;151.156;2023-07-20T03:06:48;19.40;99.90
16114;DHT22;8161;-33.910;151.156;2023-07-20T03:09:15;19.30;99.90
16114;DHT22;8161;-33.910;151.156;2023-07-20T03:11:42;19.70;99.90
16114;DHT22;8161;-33.910;151.156;2023-07-20T03:14:10;19.40;99.90
16114;DHT22;8161;-33.910;151.156;2023-07-20T03:16:37;19.70;99.90
16114;DHT22;8161;-33.910;151.156;2023-07-20T03:21:31;20.00;99.90
16114;DHT22;8161;-33.910;151.156;2023-07-20T03:23:58;19.70;99.90
16114;DHT22;8161;-33.910;151.156;2023-07-20T03:28:53;20.20;99.90
16114;DHT22;8161;-33.910;151.156;2023-07-20T03:31:21;20.20;99.90
16114;DHT22;8161;-33.910;151.156;2023-07-20T03:33:48;20.20;99.90
16114;DHT22;8161;-33.910;151.156;2023-07-20T03:36:15;19.80;99.90
16114;DHT22;8161;-33.910;151.156;2023-07-20T03:43:38;19.90;99.90
16114;DHT22;8161;-33.910;151.156;2023-07-20T03:48:33;20.10;99.90
16114;DHT22;8161;-33.910;151.156;2023-07-20T03:51:01;20.40;99.90
16114;DHT22;8161;-33.910;151.156;2023-07-20T03:53:28;20.50;99.90
16114;DHT22;8161;-33.910;151.156;2023-07-20T03:55:55;20.10;1.00
16114;DHT22;8161;-33.910;151.156;2023-07-20T04:00:51;20.90;95.90
16114;DHT22;8161;-33.910;151.156;2023-07-20T04:03:19;20.70;99.30
16114;DHT22;8161;-33.910;151.156;2023-07-20T04:05:47;20.40;96.60
16114;DHT22;8161;-33.910;151.156;2023-07-20T04:08:17;20.90;99.90
16114;DHT22;8161;-33.910;151.156;2023-07-20T04:10:44;20.30;99.90
16114;DHT22;8161;-33.910;151.156;2023-07-20T04:13:12;20.20;1.00
16114;DHT22;8161;-33.910;151.156;2023-07-20T04:15:43;20.60;99.90
16114;DHT22;8161;-33.910;151.156;2023-07-20T04:20:37;20.30;99.90
16114;DHT22;8161;-33.910;151.156;2023-07-20T04:23:04;20.50;99.90
16114;DHT22;8161;-33.910;151.156;2023-07-20T04:25:31;20.70;99.90
16114;DHT22;8161;-33.910;151.156;2023-07-20T04:28:06;20.40;41.70
16114;DHT22;8161;-33.910;151.156;2023-07-20T04:30:39;20.80;1.00
16114;DHT22;8161;-33.910;151.156;2023-07-20T04:33:07;20.40;99.90
16114;DHT22;8161;-33.910;151.156;2023-07-20T04:35:48;21.00;1.00
16114;DHT22;8161;-33.910;151.156;2023-07-20T04:38:16;20.90;84.20
16114;DHT22;8161;-33.910;151.156;2023-07-20T04:40:48;21.40;1.00
16114;DHT22;8161;-33.910;151.156;2023-07-20T04:43:17;21.10;99.90
16114;DHT22;8161;-33.910;151.156;2023-07-20T04:48:14;21.30;99.90
16114;DHT22;8161;-33.910;151.156;2023-07-20T04:50:43;20.90;96.20
16114;DHT22;8161;-33.910;151.156;2023-07-20T04:53:13;20.70;99.90
16114;DHT22;8161;-33.910;151.156;2023-07-20T04:55:51;21.50;90.20
16114;DHT22;8161;-33.910;151.156;2023-07-20T05:03:13;21.00;84.10
16114;DHT22;8161;-33.910;151.156;2023-07-20T05:05:40;20.70;99.80
16114;DHT22;8161;-33.910;151.156;2023-07-20T05:08:08;20.40;89.20
16114;DHT22;8161;-33.910;151.156;2023-07-20T05:10:35;20.40;94.70
16114;DHT22;8161;-33.910;151.156;2023-07-20T05:13:02;20.60;93.80
16114;DHT22;8161;-33.910;151.156;2023-07-20T05:15:30;20.70;94.00
16114;DHT22;8161;-33.910;151.156;2023-07-20T05:17:59;20.50;91.20
16114;DHT22;8161;-33.910;151.156;2023-07-20T05:20:26;20.60;94.30
16114;DHT22;8161;-33.910;151.156;2023-07-20T05:22:54;20.30;79.70
16114;DHT22;8161;-33.910;151.156;2023-07-20T05:25:21;20.40;90.10
16114;DHT22;8161;-33.910;151.156;2023-07-20T05:32:44;20.70;1.00
16114;DHT22;8161;-33.910;151.156;2023-07-20T05:35:18;20.00;81.90
16114;DHT22;8161;-33.910;151.156;2023-07-20T05:37:45;20.10;1.00
16114;DHT22;8161;-33.910;151.156;2023-07-20T05:40:14;20.20;68.30
16114;DHT22;8161;-33.910;151.156;2023-07-20T05:45:13;20.60;21.20
16114;DHT22;8161;-33.910;151.156;2023-07-20T05:50:10;20.10;61.30
16114;DHT22;8161;-33.910;151.156;2023-07-20T05:52:37;20.40;52.40
16114;DHT22;8161;-33.910;151.156;2023-07-20T05:55:06;20.20;51.60
16114;DHT22;8161;-33.910;151.156;2023-07-20T05:57:34;19.90;56.60
16114;DHT22;8161;-33.910;151.156;2023-07-20T06:00:02;19.90;50.50
16114;DHT22;8161;-33.910;151.156;2023-07-20T06:04:56;20.00;42.40
16114;DHT22;8161;-33.910;151.156;2023-07-20T06:07:26;19.30;1.00
16114;DHT22;8161;-33.910;151.156;2023-07-20T06:09:54;19.70;51.40
16114;DHT22;8161;-33.910;151.156;2023-07-20T06:12:21;19.30;65.50
16114;DHT22;8161;-33.910;151.156;2023-07-20T06:14:48;19.80;54.20
16114;DHT22;8161;-33.910;151.156;2023-07-20T06:22:10;18.90;46.50
16114;DHT22;8161;-33.910;151.156;2023-07-20T06:24:37;19.20;44.20
16114;DHT22;8161;-33.910;151.156;2023-07-20T06:34:26;18.90;63.50
16114;DHT22;8161;-33.910;151.156;2023-07-20T06:36:53;19.00;78.70
16114;DHT22;8161;-33.910;151.156;2023-07-20T06:39:20;18.90;66.40
16114;DHT22;8161;-33.910;151.156;2023-07-20T06:44:16;18.40;66.00
16114;DHT22;8161;-33.910;151.156;2023-07-20T06:46:43;18.70;78.50
16114;DHT22;8161;-33.910;151.156;2023-07-20T06:49:19;18.50;76.00
16114;DHT22;8161;-33.910;151.156;2023-07-20T06:51:50;18.60;61.70
16114;DHT22;8161;-33.910;151.156;2023-07-20T06:54:17;18.40;91.40
16114;DHT22;8161;-33.910;151.156;2023-07-20T06:56:45;17.90;93.70
16114;DHT22;8161;-33.910;151.156;2023-07-20T06:59:12;18.00;99.90
16114;DHT22;8161;-33.910;151.156;2023-07-20T07:01:39;18.40;96.80
16114;DHT22;8161;-33.910;151.156;2023-07-20T07:04:09;17.90;99.90
16114;DHT22;8161;-33.910;151.156;2023-07-20T07:06:37;17.60;97.90
16114;DHT22;8161;-33.910;151.156;2023-07-20T07:09:04;17.70;93.20
16114;DHT22;8161;-33.910;151.156;2023-07-20T07:11:32;17.70;92.20
16114;DHT22;8161;-33.910;151.156;2023-07-20T07:13:59;18.00;66.30
16114;DHT22;8161;-33.910;151.156;2023-07-20T07:16:26;17.70;65.00
16114;DHT22;8161;-33.910;151.156;2023-07-20T07:21:20;17.60;51.20
16114;DHT22;8161;-33.910;151.156;2023-07-20T07:23:48;17.20;48.70
16114;DHT22;8161;-33.910;151.156;2023-07-20T07:26:15;17.50;47.80
16114;DHT22;8161;-33.910;151.156;2023-07-20T07:28:43;16.90;67.70
16114;DHT22;8161;-33.910;151.156;2023-07-20T07:31:10;17.10;78.90
16114;DHT22;8161;-33.910;151.156;2023-07-20T07:33:37;17.30;93.40
16114;DHT22;8161;-33.910;151.156;2023-07-20T07:38:32;17.30;99.90
16114;DHT22;8161;-33.910;151.156;2023-07-20T07:43:27;17.10;99.90
16114;DHT22;8161;-33.910;151.156;2023-07-20T07:45:55;17.00;99.90
16114;DHT22;8161;-33.910;151.156;2023-07-20T07:48:23;17.00;99.90
16114;DHT22;8161;-33.910;151.156;2023-07-20T07:50:51;16.20;99.90
16114;DHT22;8161;-33.910;151.156;2023-07-20T07:53:19;16.40;99.90
16114;DHT22;8161;-33.910;151.156;2023-07-20T07:55:48;16.30;99.90
16114;DHT22;8161;-33.910;151.156;2023-07-20T07:58:15;16.40;99.90
16114;DHT22;8161;-33.910;151.156;2023-07-20T08:00:43;15.80;99.90
16114;DHT22;8161;-33.910;151.156;2023-07-20T08:03:10;16.50;99.90
16114;DHT22;8161;-33.910;151.156;2023-07-20T08:05:38;16.40;99.90
16114;DHT22;8161;-33.910;151.156;2023-07-20T08:08:05;15.80;99.90
16114;DHT22;8161;-33.910;151.156;2023-07-20T08:10:33;15.90;99.90
16114;DHT22;8161;-33.910;151.156;2023-07-20T08:13:00;15.40;99.90
16114;DHT22;8161;-33.910;151.156;2023-07-20T08:15:27;15.80;99.90
16114;DHT22;8161;-33.910;151.156;2023-07-20T08:17:54;16.20;99.90
16114;DHT22;8161;-33.910;151.156;2023-07-20T08:20:22;15.70;99.90
16114;DHT22;8161;-33.910;151.156;2023-07-20T08:22:56;15.30;99.90
16114;DHT22;8161;-33.910;151.156;2023-07-20T08:25:24;15.70;99.90
16114;DHT22;8161;-33.910;151.156;2023-07-20T08:27:52;15.60;99.90
16114;DHT22;8161;-33.910;151.156;2023-07-20T08:30:21;15.40;99.90
16114;DHT22;8161;-33.910;151.156;2023-07-20T08:32:50;15.60;99.90
16114;DHT22;8161;-33.910;151.156;2023-07-20T08:35:17;15.20;99.90
16114;DHT22;8161;-33.910;151.156;2023-07-20T08:37:45;15.40;99.90
16114;DHT22;8161;-33.910;151.156;2023-07-20T08:42:39;15.60;99.90
16114;DHT22;8161;-33.910;151.156;2023-07-20T08:45:08;14.90;99.90
16114;DHT22;8161;-33.910;151.156;2023-07-20T08:47:36;15.00;99.90
16114;DHT22;8161;-33.910;151.156;2023-07-20T08:50:06;15.40;99.90
16114;DHT22;8161;-33.910;151.156;2023-07-20T08:52:35;14.80;99.90
16114;DHT22;8161;-33.910;151.156;2023-07-20T08:55:03;15.10;99.90
16114;DHT22;8161;-33.910;151.156;2023-07-20T08:57:33;15.20;99.90
16114;DHT22;8161;-33.910;151.156;2023-07-20T09:00:04;14.90;99.90
16114;DHT22;8161;-33.910;151.156;2023-07-20T09:02:33;15.20;99.90
16114;DHT22;8161;-33.910;151.156;2023-07-20T09:07:29;14.70;99.90
16114;DHT22;8161;-33.910;151.156;2023-07-20T09:09:58;14.90;1.00
16114;DHT22;8161;-33.910;151.156;2023-07-20T09:12:26;14.60;1.00
16114;DHT22;8161;-33.910;151.156;2023-07-20T09:14:53;14.50;99.90
16114;DHT22;8161;-33.910;151.156;2023-07-20T09:17:26;14.60;1.00
16114;DHT22;8161;-33.910;151.156;2023-07-20T09:19:53;14.80;1.00
16114;DHT22;8161;-33.910;151.156;2023-07-20T09:22:21;14.30;1.00
16114;DHT22;8161;-33.910;151.156;2023-07-20T09:24:48;14.50;1.00
16114;DHT22;8161;-33.910;151.156;2023-07-20T09:27:15;14.00;1.00
16114;DHT22;8161;-33.910;151.156;2023-07-20T09:29:50;13.80;1.00
16114;DHT22;8161;-33.910;151.156;2023-07-20T09:32:21;14.20;1.00
16114;DHT22;8161;-33.910;151.156;2023-07-20T09:34:50;13.80;1.00
16114;DHT22;8161;-33.910;151.156;2023-07-20T09:37:24;14.10;1.00
16114;DHT22;8161;-33.910;151.156;2023-07-20T09:39:53;13.70;1.00
16114;DHT22;8161;-33.910;151.156;2023-07-20T09:42:22;13.90;1.00
16114;DHT22;8161;-33.910;151.156;2023-07-20T09:44:52;13.70;1.00
16114;DHT22;8161;-33.910;151.156;2023-07-20T09:47:24;14.00;1.00
16114;DHT22;8161;-33.910;151.156;2023-07-20T09:49:58;13.40;1.00
16114;DHT22;8161;-33.910;151.156;2023-07-20T09:52:26;14.00;25.80
16114;DHT22;8161;-33.910;151.156;2023-07-20T09:54:55;14.00;46.20
16114;DHT22;8161;-33.910;151.156;2023-07-20T09:57:22;13.90;99.90
16114;DHT22;8161;-33.910;151.156;2023-07-20T10:02:25;13.50;99.90
16114;DHT22;8161;-33.910;151.156;2023-07-20T10:04:54;13.60;99.90
16114;DHT22;8161;-33.910;151.156;2023-07-20T10:07:23;13.50;99.90
16114;DHT22;8161;-33.910;151.156;2023-07-20T10:09:56;13.60;1.00
16114;DHT22;8161;-33.910;151.156;2023-07-20T10:12:26;13.40;1.00
16114;DHT22;8161;-33.910;151.156;2023-07-20T10:17:32;13.40;1.00
16114;DHT22;8161;-33.910;151.156;2023-07-20T10:20:01;13.50;1.00
16114;DHT22;8161;-33.910;151.156;2023-07-20T10:22:34;13.60;1.00
16114;DHT22;8161;-33.910;151.156;2023-07-20T10:25:02;13.50;1.00
16114;DHT22;8161;-33.910;151.156;2023-07-20T10:27:31;13.30;1.00
16114;DHT22;8161;-33.910;151.156;2023-07-20T10:29:59;13.50;1.00
16114;DHT22;8161;-33.910;151.156;2023-07-20T10:32:28;13.50;1.00
16114;DHT22;8161;-33.910;151.156;2023-07-20T10:34:57;13.80;1.00
16114;DHT22;8161;-33.910;151.156;2023-07-20T10:40:53;13.40;99.90
16114;DHT22;8161;-33.910;151.156;2023-07-20T10:45:54;14.00;99.90
16114;DHT22;8161;-33.910;151.156;2023-07-20T10:48:23;13.70;1.00
16114;DHT22;8161;-33.910;151.156;2023-07-20T10:51:14;13.50;1.00
16114;DHT22;8161;-33.910;151.156;2023-07-20T10:53:48;13.50;99.90
16114;DHT22;8161;-33.910;151.156;2023-07-20T10:56:36;13.60;99.90
16114;DHT22;8161;-33.910;151.156;2023-07-20T10:59:35;13.70;99.90
16114;DHT22;8161;-33.910;151.156;2023-07-20T11:02:08;13.50;99.90
16114;DHT22;8161;-33.910;151.156;2023-07-20T11:04:43;13.20;99.90
16114;DHT22;8161;-33.910;151.156;2023-07-20T11:09:38;13.80;99.90
16114;DHT22;8161;-33.910;151.156;2023-07-20T11:12:17;13.90;99.90
16114;DHT22;8161;-33.910;151.156;2023-07-20T11:14:55;13.50;99.90
16114;DHT22;8161;-33.910;151.156;2023-07-20T11:17:30;13.80;99.90
16114;DHT22;8161;-33.910;151.156;2023-07-20T11:19:59;13.60;99.90
16114;DHT22;8161;-33.910;151.156;2023-07-20T11:22:31;13.30;99.90
16114;DHT22;8161;-33.910;151.156;2023-07-20T11:24:59;13.40;99.90
16114;DHT22;8161;-33.910;151.156;2023-07-20T11:27:26;13.40;99.90
16114;DHT22;8161;-33.910;151.156;2023-07-20T11:29:54;13.10;99.90
16114;DHT22;8161;-33.910;151.156;2023-07-20T11:32:23;13.30;99.90
16114;DHT22;8161;-33.910;151.156;2023-07-20T11:34:50;13.40;99.90
16114;DHT22;8161;-33.910;151.156;2023-07-20T11:42:12;13.40;99.90
16114;DHT22;8161;-33.910;151.156;2023-07-20T11:44:39;13.30;1.00
16114;DHT22;8161;-33.910;151.156;2023-07-20T11:47:11;13.40;1.00
16114;DHT22;8161;-33.910;151.156;2023-07-20T11:49:40;12.80;1.00
16114;DHT22;8161;-33.910;151.156;2023-07-20T11:52:09;12.90;1.00
16114;DHT22;8161;-33.910;151.156;2023-07-20T11:54:40;13.30;1.00
16114;DHT22;8161;-33.910;151.156;2023-07-20T11:57:20;12.80;1.00
16114;DHT22;8161;-33.910;151.156;2023-07-20T11:59:54;13.30;1.00
16114;DHT22;8161;-33.910;151.156;2023-07-20T12:02:27;12.90;1.00
16114;DHT22;8161;-33.910;151.156;2023-07-20T12:04:55;13.30;1.00
16114;DHT22;8161;-33.910;151.156;2023-07-20T12:07:25;13.10;1.00
16114;DHT22;8161;-33.910;151.156;2023-07-20T12:10:10;13.20;1.00
16114;DHT22;8161;-33.910;151.156;2023-07-20T12:12:42;12.80;1.00
16114;DHT22;8161;-33.910;151.156;2023-07-20T12:15:27;13.10;1.00
16114;DHT22;8161;-33.910;151.156;2023-07-20T12:18:00;12.50;1.00
16114;DHT22;8161;-33.910;151.156;2023-07-20T12:23:09;12.70;1.00
16114;DHT22;8161;-33.910;151.156;2023-07-20T12:28:17;12.50;1.00
16114;DHT22;8161;-33.910;151.156;2023-07-20T12:30:45;12.40;1.00
16114;DHT22;8161;-33.910;151.156;2023-07-20T12:33:13;12.70;1.00
16114;DHT22;8161;-33.910;151.156;2023-07-20T12:38:12;12.80;1.00
16114;DHT22;8161;-33.910;151.156;2023-07-20T12:40:39;12.50;1.00
16114;DHT22;8161;-33.910;151.156;2023-07-20T12:43:07;12.20;1.00
16114;DHT22;8161;-33.910;151.156;2023-07-20T12:45:34;12.40;1.00
16114;DHT22;8161;-33.910;151.156;2023-07-20T12:48:04;12.80;1.00
16114;DHT22;8161;-33.910;151.156;2023-07-20T12:52:59;12.70;1.00
16114;DHT22;8161;-33.910;151.156;2023-07-20T12:55:26;12.40;1.00
16114;DHT22;8161;-33.910;151.156;2023-07-20T12:57:53;12.30;1.00
16114;DHT22;8161;-33.910;151.156;2023-07-20T13:02:51;12.20;1.00
16114;DHT22;8161;-33.910;151.156;2023-07-20T13:05:21;12.60;1.00
16114;DHT22;8161;-33.910;151.156;2023-07-20T13:07:48;12.40;99.90
16114;DHT22;8161;-33.910;151.156;2023-07-20T13:10:16;12.20;99.90
16114;DHT22;8161;-33.910;151.156;2023-07-20T13:12:44;12.80;99.90
16114;DHT22;8161;-33.910;151.156;2023-07-20T13:15:11;12.50;99.90
16114;DHT22;8161;-33.910;151.156;2023-07-20T13:17:39;12.40;99.90
16114;DHT22;8161;-33.910;151.156;2023-07-20T13:20:08;12.50;99.90
16114;DHT22;8161;-33.910;151.156;2023-07-20T13:22:37;12.40;99.90
16114;DHT22;8161;-33.910;151.156;2023-07-20T13:25:05;12.50;99.90
16114;DHT22;8161;-33.910;151.156;2023-07-20T13:27:33;12.20;99.90
16114;DHT22;8161;-33.910;151.156;2023-07-20T13:30:00;12.10;99.90
16114;DHT22;8161;-33.910;151.156;2023-07-20T13:32:33;12.50;99.90
16114;DHT22;8161;-33.910;151.156;2023-07-20T13:35:00;12.10;99.90
16114;DHT22;8161;-33.910;151.156;2023-07-20T13:37:28;12.20;99.90
16114;DHT22;8161;-33.910;151.156;2023-07-20T13:39:55;12.30;99.90
16114;DHT22;8161;-33.910;151.156;2023-07-20T13:42:25;12.10;99.90
16114;DHT22;8161;-33.910;151.156;2023-07-20T13:44:52;12.00;99.90
16114;DHT22;8161;-33.910;151.156;2023-07-20T13:47:20;12.40;99.90
16114;DHT22;8161;-33.910;151.156;2023-07-20T13:52:14;12.20;1.00
16114;DHT22;8161;-33.910;151.156;2023-07-20T13:54:42;12.30;1.00
16114;DHT22;8161;-33.910;151.156;2023-07-20T13:57:09;12.20;1.00
16114;DHT22;8161;-33.910;151.156;2023-07-20T13:59:36;12.10;1.00
16114;DHT22;8161;-33.910;151.156;2023-07-20T14:02:03;12.20;1.00
16114;DHT22;8161;-33.910;151.156;2023-07-20T14:04:31;12.00;1.00
16114;DHT22;8161;-33.910;151.156;2023-07-20T14:06:58;12.10;1.00
16114;DHT22;8161;-33.910;151.156;2023-07-20T14:09:25;11.80;1.00
16114;DHT22;8161;-33.910;151.156;2023-07-20T14:11:53;11.70;1.00
16114;DHT22;8161;-33.910;151.156;2023-07-20T14:14:21;11.50;1.00
16114;DHT22;8161;-33.910;151.156;2023-07-20T14:19:15;11.50;1.00
16114;DHT22;8161;-33.910;151.156;2023-07-20T14:21:42;11.50;1.00
16114;DHT22;8161;-33.910;151.156;2023-07-20T14:24:10;11.50;1.00
16114;DHT22;8161;-33.910;151.156;2023-07-20T14:29:05;11.60;1.00
16114;DHT22;8161;-33.910;151.156;2023-07-20T14:31:32;11.30;1.00
16114;DHT22;8161;-33.910;151.156;2023-07-20T14:33:59;11.50;1.00
16114;DHT22;8161;-33.910;151.156;2023-07-20T14:38:54;11.30;1.00
16114;DHT22;8161;-33.910;151.156;2023-07-20T14:43:48;11.30;1.00
16114;DHT22;8161;-33.910;151.156;2023-07-20T14:46:15;11.50;1.00
16114;DHT22;8161;-33.910;151.156;2023-07-20T14:48:42;11.60;1.00
16114;DHT22;8161;-33.910;151.156;2023-07-20T14:51:10;11.20;1.00
16114;DHT22;8161;-33.910;151.156;2023-07-20T14:56:04;11.50;1.00
16114;DHT22;8161;-33.910;151.156;2023-07-20T14:58:32;11.60;1.00
16114;DHT22;8161;-33.910;151.156;2023-07-20T15:00:59;11.60;1.00
16114;DHT22;8161;-33.910;151.156;2023-07-20T15:03:26;11.40;1.00
16114;DHT22;8161;-33.910;151.156;2023-07-20T15:05:54;11.50;1.00
16114;DHT22;8161;-33.910;151.156;2023-07-20T15:08:22;11.60;1.00
16114;DHT22;8161;-33.910;151.156;2023-07-20T15:10:50;11.50;99.90
16114;DHT22;8161;-33.910;151.156;2023-07-20T15:15:44;11.50;1.00
16114;DHT22;8161;-33.910;151.156;2023-07-20T15:18:12;11.40;53.00
16114;DHT22;8161;-33.910;151.156;2023-07-20T15:20:39;11.30;99.90
16114;DHT22;8161;-33.910;151.156;2023-07-20T15:23:06;11.40;99.90
16114;DHT22;8161;-33.910;151.156;2023-07-20T15:25:33;11.30;99.90
16114;DHT22;8161;-33.910;151.156;2023-07-20T15:28:01;11.20;99.90
16114;DHT22;8161;-33.910;151.156;2023-07-20T15:30:28;11.10;99.90
16114;DHT22;8161;-33.910;151.156;2023-07-20T15:32:56;11.60;99.90
16114;DHT22;8161;-33.910;151.156;2023-07-20T15:37:51;11.70;99.90
16114;DHT22;8161;-33.910;151.156;2023-07-20T15:40:18;11.30;70.80
16114;DHT22;8161;-33.910;151.156;2023-07-20T15:45:13;11.60;1.00
16114;DHT22;8161;-33.910;151.156;2023-07-20T15:47:40;11.30;1.00
16114;DHT22;8161;-33.910;151.156;2023-07-20T15:50:07;11.60;99.90
16114;DHT22;8161;-33.910;151.156;2023-07-20T15:52:35;12.00;99.90
16114;DHT22;8161;-33.910;151.156;2023-07-20T15:55:02;12.00;99.90
16114;DHT22;8161;-33.910;151.156;2023-07-20T15:57:31;11.50;99.90
16114;DHT22;8161;-33.910;151.156;2023-07-20T15:59:58;11.70;99.90
16114;DHT22;8161;-33.910;151.156;2023-07-20T16:02:25;12.20;99.90
16114;DHT22;8161;-33.910;151.156;2023-07-20T16:04:52;11.60;99.90
16114;DHT22;8161;-33.910;151.156;2023-07-20T16:07:22;11.90;99.90
16114;DHT22;8161;-33.910;151.156;2023-07-20T16:09:50;11.70;99.90
16114;DHT22;8161;-33.910;151.156;2023-07-20T16:12:17;12.20;99.90
16114;DHT22;8161;-33.910;151.156;2023-07-20T16:14:44;11.90;99.90
16114;DHT22;8161;-33.910;151.156;2023-07-20T16:17:13;12.30;99.90
16114;DHT22;8161;-33.910;151.156;2023-07-20T16:19:40;12.40;99.90
16114;DHT22;8161;-33.910;151.156;2023-07-20T16:22:07;12.30;99.90
16114;DHT22;8161;-33.910;151.156;2023-07-20T16:24:38;12.70;97.90
16114;DHT22;8161;-33.910;151.156;2023-07-20T16:27:06;12.70;99.90
16114;DHT22;8161;-33.910;151.156;2023-07-20T16:29:33;11.90;99.90
16114;DHT22;8161;-33.910;151.156;2023-07-20T16:32:00;12.40;99.90
16114;DHT22;8161;-33.910;151.156;2023-07-20T16:34:28;12.40;99.90
16114;DHT22;8161;-33.910;151.156;2023-07-20T16:36:55;12.20;99.90
16114;DHT22;8161;-33.910;151.156;2023-07-20T16:39:22;11.80;99.90
16114;DHT22;8161;-33.910;151.156;2023-07-20T16:41:50;11.90;99.90
16114;DHT22;8161;-33.910;151.156;2023-07-20T16:44:17;11.60;99.90
16114;DHT22;8161;-33.910;151.156;2023-07-20T16:49:13;11.90;99.90
16114;DHT22;8161;-33.910;151.156;2023-07-20T16:51:40;11.80;99.90
16114;DHT22;8161;-33.910;151.156;2023-07-20T16:54:07;11.50;99.90
16114;DHT22;8161;-33.910;151.156;2023-07-20T16:56:35;11.20;99.90
16114;DHT22;8161;-33.910;151.156;2023-07-20T16:59:02;11.70;99.90
16114;DHT22;8161;-33.910;151.156;2023-07-20T17:01:30;11.30;99.90
16114;DHT22;8161;-33.910;151.156;2023-07-20T17:03:59;11.50;99.90
16114;DHT22;8161;-33.910;151.156;2023-07-20T17:06:26;11.40;99.90
16114;DHT22;8161;-33.910;151.156;2023-07-20T17:08:53;11.50;99.90
16114;DHT22;8161;-33.910;151.156;2023-07-20T17:11:21;11.60;99.90
16114;DHT22;8161;-33.910;151.156;2023-07-20T17:13:49;11.20;99.90
16114;DHT22;8161;-33.910;151.156;2023-07-20T17:16:19;11.40;99.90
16114;DHT22;8161;-33.910;151.156;2023-07-20T17:18:47;11.50;99.90
16114;DHT22;8161;-33.910;151.156;2023-07-20T17:23:42;10.70;99.90
16114;DHT22;8161;-33.910;151.156;2023-07-20T17:26:10;10.70;1.00
16114;DHT22;8161;-33.910;151.156;2023-07-20T17:28:37;11.30;1.00
16114;DHT22;8161;-33.910;151.156;2023-07-20T17:31:05;11.20;1.00
16114;DHT22;8161;-33.910;151.156;2023-07-20T17:33:32;11.20;1.00
16114;DHT22;8161;-33.910;151.156;2023-07-20T17:35:59;10.90;1.00
16114;DHT22;8161;-33.910;151.156;2023-07-20T17:38:27;11.10;1.00
16114;DHT22;8161;-33.910;151.156;2023-07-20T17:43:21;10.80;1.00
16114;DHT22;8161;-33.910;151.156;2023-07-20T17:45:52;11.30;1.00
16114;DHT22;8161;-33.910;151.156;2023-07-20T17:48:20;11.40;1.00
16114;DHT22;8161;-33.910;151.156;2023-07-20T17:50:47;10.90;1.00
16114;DHT22;8161;-33.910;151.156;2023-07-20T17:53:15;10.60;1.00
16114;DHT22;8161;-33.910;151.156;2023-07-20T17:55:43;11.00;1.00
16114;DHT22;8161;-33.910;151.156;2023-07-20T17:58:10;10.90;1.00
16114;DHT22;8161;-33.910;151.156;2023-07-20T18:00:37;10.70;1.00
16114;DHT22;8161;-33.910;151.156;2023-07-20T18:03:05;11.00;1.00
16114;DHT22;8161;-33.910;151.156;2023-07-20T18:05:32;11.30;1.00
16114;DHT22;8161;-33.910;151.156;2023-07-20T18:08:00;10.60;1.00
16114;DHT22;8161;-33.910;151.156;2023-07-20T18:10:28;11.00;1.00
16114;DHT22;8161;-33.910;151.156;2023-07-20T18:12:55;11.30;1.00
16114;DHT22;8161;-33.910;151.156;2023-07-20T18:15:22;11.20;1.00
16114;DHT22;8161;-33.910;151.156;2023-07-20T18:17:51;11.20;1.00
16114;DHT22;8161;-33.910;151.156;2023-07-20T18:20:18;11.20;1.00